sensor_id;sensor_type;location;lat;lon;timestamp;temperature;humidity
17452;DHT22;8843;48.838;9.324;2023-11-21T00:01:00;11.00;93.30
17452;DHT22;8843;48.838;9.324;2023-11-21T00:03:29;11.00;93.00
17452;DHT22;8843;48.838;9.324;2023-11-21T00:05:56;11.00;93.40
17452;DHT22;8843;48.838;9.324;2023-11-21T00:08:24;11.00;93.00
17452;DHT22;8843;48.838;9.324;2023-11-21T00:10:51;11.00;93.00
17452;DHT22;8843;48.838;9.324;2023-11-21T00:13:18;11.00;93.00
17452;DHT22;8843;48.838;9.324;2023-11-21T00:15:45;11.00;93.00
17452;DHT22;8843;48.838;9.324;2023-11-21T00:18:12;11.00;93.00
17452;DHT22;8843;48.838;9.324;2023-11-21T00:20:39;11.00;93.00
17452;DHT22;8843;48.838;9.324;2023-11-21T00:23:06;11.00;93.00
17452;DHT22;8843;48.838;9.324;2023-11-21T00:25:37;11.00;93.00
17452;DHT22;8843;48.838;9.324;2023-11-21T00:28:04;11.00;93.00
17452;DHT22;8843;48.838;9.324;2023-11-21T00:30:31;11.00;93.00
17452;DHT22;8843;48.838;9.324;2023-11-21T00:32:58;11.00;93.00
17452;DHT22;8843;48.838;9.324;2023-11-21T00:35:25;11.00;93.00
17452;DHT22;8843;48.838;9.324;2023-11-21T00:37:52;11.00;93.00
17452;DHT22;8843;48.838;9.324;2023-11-21T00:40:19;11.00;93.00
17452;DHT22;8843;48.838;9.324;2023-11-21T00:42:47;11.00;93.00
17452;DHT22;8843;48.838;9.324;2023-11-21T00:45:14;11.00;93.00
17452;DHT22;8843;48.838;9.324;2023-11-21T00:47:41;11.00;93.00
17452;DHT22;8843;48.838;9.324;2023-11-21T00:50:09;11.00;93.00
17452;DHT22;8843;48.838;9.324;2023-11-21T00:52:36;11.00;93.00
17452;DHT22;8843;48.838;9.324;2023-11-21T00:55:03;11.00;92.90
17452;DHT22;8843;48.838;9.324;2023-11-21T00:57:30;11.00;92.90
17452;DHT22;8843;48.838;9.324;2023-11-21T00:59:58;11.00;93.00
17452;DHT22;8843;48.838;9.324;2023-11-21T01:02:25;11.00;92.90
17452;DHT22;8843;48.838;9.324;2023-11-21T01:04:52;11.00;93.00
17452;DHT22;8843;48.838;9.324;2023-11-21T01:07:19;10.90;92.90
17452;DHT22;8843;48.838;9.324;2023-11-21T01:09:46;11.00;93.30
17452;DHT22;8843;48.838;9.324;2023-11-21T01:12:14;10.90;92.90
17452;DHT22;8843;48.838;9.324;2023-11-21T01:14:43;11.00;92.90
17452;DHT22;8843;48.838;9.324;2023-11-21T01:17:12;10.90;92.90
17452;DHT22;8843;48.838;9.324;2023-11-21T01:19:38;10.90;92.90
17452;DHT22;8843;48.838;9.324;2023-11-21T01:22:05;10.90;92.90
17452;DHT22;8843;48.838;9.324;2023-11-21T01:24:32;11.00;92.90
17452;DHT22;8843;48.838;9.324;2023-11-21T01:26:59;10.90;92.90
17452;DHT22;8843;48.838;9.324;2023-11-21T01:29:26;10.90;92.90
17452;DHT22;8843;48.838;9.324;2023-11-21T01:31:53;10.90;92.90
17452;DHT22;8843;48.838;9.324;2023-11-21T01:34:21;10.90;92.90
17452;DHT22;8843;48.838;9.324;2023-11-21T01:36:49;10.90;92.70
17452;DHT22;8843;48.838;9.324;2023-11-21T01:39:15;10.90;92.90
17452;DHT22;8843;48.838;9.324;2023-11-21T01:41:49;10.90;92.80
17452;DHT22;8843;48.838;9.324;2023-11-21T01:44:15;10.90;92.90
17452;DHT22;8843;48.838;9.324;2023-11-21T01:46:43;10.90;92.90
17452;DHT22;8843;48.838;9.324;2023-11-21T01:49:10;10.90;92.70
17452;DHT22;8843;48.838;9.324;2023-11-21T01:51:40;10.90;92.90
17452;DHT22;8843;48.838;9.324;2023-11-21T01:54:09;10.90;93.20
17452;DHT22;8843;48.838;9.324;2023-11-21T01:56:37;10.90;92.80
17452;DHT22;8843;48.838;9.324;2023-11-21T01:59:05;10.90;93.30
17452;DHT22;8843;48.838;9.324;2023-11-21T02:01:32;10.90;93.20
17452;DHT22;8843;48.838;9.324;2023-11-21T02:03:59;10.90;92.90
17452;DHT22;8843;48.838;9.324;2023-11-21T02:06:27;10.90;92.90
17452;DHT22;8843;48.838;9.324;2023-11-21T02:08:57;10.90;92.90
17452;DHT22;8843;48.838;9.324;2023-11-21T02:11:25;10.90;92.90
17452;DHT22;8843;48.838;9.324;2023-11-21T02:13:52;10.90;92.80
17452;DHT22;8843;48.838;9.324;2023-11-21T02:16:20;10.90;92.90
17452;DHT22;8843;48.838;9.324;2023-11-21T02:18:47;10.90;92.90
17452;DHT22;8843;48.838;9.324;2023-11-21T02:21:15;10.90;92.90
17452;DHT22;8843;48.838;9.324;2023-11-21T02:23:43;10.90;93.20
17452;DHT22;8843;48.838;9.324;2023-11-21T02:26:12;10.90;92.80
17452;DHT22;8843;48.838;9.324;2023-11-21T02:28:39;10.90;92.90
17452;DHT22;8843;48.838;9.324;2023-11-21T02:31:06;10.90;92.90
17452;DHT22;8843;48.838;9.324;2023-11-21T02:33:33;10.90;93.20
17452;DHT22;8843;48.838;9.324;2023-11-21T02:36:00;10.90;92.90
17452;DHT22;8843;48.838;9.324;2023-11-21T02:38:27;10.90;93.20
17452;DHT22;8843;48.838;9.324;2023-11-21T02:40:57;10.90;92.90
17452;DHT22;8843;48.838;9.324;2023-11-21T02:43:24;10.90;92.90
17452;DHT22;8843;48.838;9.324;2023-11-21T02:45:51;10.90;92.90
17452;DHT22;8843;48.838;9.324;2023-11-21T02:48:18;10.90;92.90
17452;DHT22;8843;48.838;9.324;2023-11-21T02:50:45;10.90;92.90
17452;DHT22;8843;48.838;9.324;2023-11-21T02:53:12;10.90;92.90
17452;DHT22;8843;48.838;9.324;2023-11-21T02:55:38;10.90;92.90
17452;DHT22;8843;48.838;9.324;2023-11-21T02:58:07;10.90;92.60
17452;DHT22;8843;48.838;9.324;2023-11-21T03:00:34;10.90;92.80
17452;DHT22;8843;48.838;9.324;2023-11-21T03:03:01;10.90;92.90
17452;DHT22;8843;48.838;9.324;2023-11-21T03:05:27;10.90;92.90
17452;DHT22;8843;48.838;9.324;2023-11-21T03:07:55;10.90;92.90
17452;DHT22;8843;48.838;9.324;2023-11-21T03:10:22;10.90;92.80
17452;DHT22;8843;48.838;9.324;2023-11-21T03:12:49;10.90;92.90
17452;DHT22;8843;48.838;9.324;2023-11-21T03:15:17;10.90;93.20
17452;DHT22;8843;48.838;9.324;2023-11-21T03:17:44;10.90;92.90
17452;DHT22;8843;48.838;9.324;2023-11-21T03:20:11;10.90;92.90
17452;DHT22;8843;48.838;9.324;2023-11-21T03:22:39;10.80;92.80
17452;DHT22;8843;48.838;9.324;2023-11-21T03:25:07;10.90;92.90
17452;DHT22;8843;48.838;9.324;2023-11-21T03:27:36;10.90;93.20
17452;DHT22;8843;48.838;9.324;2023-11-21T03:30:05;10.90;92.90
17452;DHT22;8843;48.838;9.324;2023-11-21T03:32:34;10.90;92.90
17452;DHT22;8843;48.838;9.324;2023-11-21T03:35:01;10.80;93.00
17452;DHT22;8843;48.838;9.324;2023-11-21T03:37:29;10.80;92.90
17452;DHT22;8843;48.838;9.324;2023-11-21T03:39:56;10.80;92.90
17452;DHT22;8843;48.838;9.324;2023-11-21T03:42:23;10.80;92.90
17452;DHT22;8843;48.838;9.324;2023-11-21T03:44:51;10.80;92.90
17452;DHT22;8843;48.838;9.324;2023-11-21T03:47:18;10.80;92.90
17452;DHT22;8843;48.838;9.324;2023-11-21T03:49:47;10.80;92.90
17452;DHT22;8843;48.838;9.324;2023-11-21T03:52:13;10.80;92.90
17452;DHT22;8843;48.838;9.324;2023-11-21T03:54:40;10.80;92.90
17452;DHT22;8843;48.838;9.324;2023-11-21T03:57:08;10.80;92.80
17452;DHT22;8843;48.838;9.324;2023-11-21T03:59:36;10.90;92.90
17452;DHT22;8843;48.838;9.324;2023-11-21T04:02:03;10.80;92.80
17452;DHT22;8843;48.838;9.324;2023-11-21T04:04:30;10.90;92.90
17452;DHT22;8843;48.838;9.324;2023-11-21T04:06:58;10.90;92.90
17452;DHT22;8843;48.838;9.324;2023-11-21T04:09:25;10.80;92.80
17452;DHT22;8843;48.838;9.324;2023-11-21T04:11:52;10.90;92.90
17452;DHT22;8843;48.838;9.324;2023-11-21T04:14:19;10.90;92.80
17452;DHT22;8843;48.838;9.324;2023-11-21T04:16:46;10.90;92.90
17452;DHT22;8843;48.838;9.324;2023-11-21T04:19:13;10.90;92.90
17452;DHT22;8843;48.838;9.324;2023-11-21T04:21:41;10.90;92.80
17452;DHT22;8843;48.838;9.324;2023-11-21T04:24:10;10.90;92.80
17452;DHT22;8843;48.838;9.324;2023-11-21T04:26:37;10.80;92.80
17452;DHT22;8843;48.838;9.324;2023-11-21T04:29:03;10.90;93.20
17452;DHT22;8843;48.838;9.324;2023-11-21T04:31:31;10.90;92.80
17452;DHT22;8843;48.838;9.324;2023-11-21T04:33:58;10.90;92.80
17452;DHT22;8843;48.838;9.324;2023-11-21T04:36:25;10.80;92.80
17452;DHT22;8843;48.838;9.324;2023-11-21T04:38:52;10.90;92.80
17452;DHT22;8843;48.838;9.324;2023-11-21T04:41:20;10.80;92.80
17452;DHT22;8843;48.838;9.324;2023-11-21T04:43:47;10.80;92.80
17452;DHT22;8843;48.838;9.324;2023-11-21T04:46:14;10.80;92.80
17452;DHT22;8843;48.838;9.324;2023-11-21T04:48:41;10.80;92.80
17452;DHT22;8843;48.838;9.324;2023-11-21T04:51:09;10.80;92.80
17452;DHT22;8843;48.838;9.324;2023-11-21T04:53:37;10.80;92.80
17452;DHT22;8843;48.838;9.324;2023-11-21T04:56:05;10.90;93.10
17452;DHT22;8843;48.838;9.324;2023-11-21T04:58:33;10.80;92.80
17452;DHT22;8843;48.838;9.324;2023-11-21T05:01:01;10.80;92.80
17452;DHT22;8843;48.838;9.324;2023-11-21T05:03:28;10.80;92.80
17452;DHT22;8843;48.838;9.324;2023-11-21T05:05:56;10.80;92.80
17452;DHT22;8843;48.838;9.324;2023-11-21T05:08:23;10.80;93.10
17452;DHT22;8843;48.838;9.324;2023-11-21T05:10:50;10.80;92.80
17452;DHT22;8843;48.838;9.324;2023-11-21T05:13:17;10.80;92.80
17452;DHT22;8843;48.838;9.324;2023-11-21T05:15:45;10.80;92.80
17452;DHT22;8843;48.838;9.324;2023-11-21T05:18:12;10.80;93.10
17452;DHT22;8843;48.838;9.324;2023-11-21T05:20:40;10.80;92.80
17452;DHT22;8843;48.838;9.324;2023-11-21T05:23:07;10.80;92.80
17452;DHT22;8843;48.838;9.324;2023-11-21T05:25:34;10.80;92.80
17452;DHT22;8843;48.838;9.324;2023-11-21T05:28:01;10.80;92.80
17452;DHT22;8843;48.838;9.324;2023-11-21T05:30:29;10.80;92.80
17452;DHT22;8843;48.838;9.324;2023-11-21T05:32:57;10.80;92.80
17452;DHT22;8843;48.838;9.324;2023-11-21T05:35:24;10.80;93.10
17452;DHT22;8843;48.838;9.324;2023-11-21T05:37:52;10.80;92.90
17452;DHT22;8843;48.838;9.324;2023-11-21T05:40:19;10.80;92.90
17452;DHT22;8843;48.838;9.324;2023-11-21T05:42:47;10.80;92.90
17452;DHT22;8843;48.838;9.324;2023-11-21T05:45:14;10.80;92.90
17452;DHT22;8843;48.838;9.324;2023-11-21T05:47:43;10.80;92.90
17452;DHT22;8843;48.838;9.324;2023-11-21T05:50:13;10.80;92.80
17452;DHT22;8843;48.838;9.324;2023-11-21T05:52:41;10.80;92.80
17452;DHT22;8843;48.838;9.324;2023-11-21T05:55:08;10.80;92.80
17452;DHT22;8843;48.838;9.324;2023-11-21T05:57:37;10.80;92.80
17452;DHT22;8843;48.838;9.324;2023-11-21T06:00:05;10.80;92.80
17452;DHT22;8843;48.838;9.324;2023-11-21T06:02:37;10.80;92.80
17452;DHT22;8843;48.838;9.324;2023-11-21T06:05:05;10.80;92.80
17452;DHT22;8843;48.838;9.324;2023-11-21T06:07:33;10.80;92.80
17452;DHT22;8843;48.838;9.324;2023-11-21T06:10:01;10.80;92.80
17452;DHT22;8843;48.838;9.324;2023-11-21T06:12:28;10.80;92.80
17452;DHT22;8843;48.838;9.324;2023-11-21T06:14:55;10.80;92.80
17452;DHT22;8843;48.838;9.324;2023-11-21T06:17:22;10.80;92.70
17452;DHT22;8843;48.838;9.324;2023-11-21T06:19:50;10.80;92.80
17452;DHT22;8843;48.838;9.324;2023-11-21T06:22:18;10.80;92.70
17452;DHT22;8843;48.838;9.324;2023-11-21T06:24:46;10.80;92.80
17452;DHT22;8843;48.838;9.324;2023-11-21T06:27:13;10.80;92.80
17452;DHT22;8843;48.838;9.324;2023-11-21T06:29:41;10.80;92.80
17452;DHT22;8843;48.838;9.324;2023-11-21T06:32:09;10.80;92.70
17452;DHT22;8843;48.838;9.324;2023-11-21T06:34:35;10.80;93.10
17452;DHT22;8843;48.838;9.324;2023-11-21T06:37:02;10.80;92.70
17452;DHT22;8843;48.838;9.324;2023-11-21T06:39:32;11.40;96.40
17452;DHT22;8843;48.838;9.324;2023-11-21T06:42:03;11.20;92.90
17452;DHT22;8843;48.838;9.324;2023-11-21T06:44:29;11.00;92.80
17452;DHT22;8843;48.838;9.324;2023-11-21T06:46:56;10.90;92.90
17452;DHT22;8843;48.838;9.324;2023-11-21T06:49:23;10.90;93.00
17452;DHT22;8843;48.838;9.324;2023-11-21T06:51:50;10.80;93.00
17452;DHT22;8843;48.838;9.324;2023-11-21T06:54:18;10.80;93.00
17452;DHT22;8843;48.838;9.324;2023-11-21T06:56:46;10.80;93.10
17452;DHT22;8843;48.838;9.324;2023-11-21T06:59:16;10.80;92.70
17452;DHT22;8843;48.838;9.324;2023-11-21T07:01:43;10.70;92.80
17452;DHT22;8843;48.838;9.324;2023-11-21T07:04:10;10.90;92.40
17452;DHT22;8843;48.838;9.324;2023-11-21T07:06:41;11.00;92.20
17452;DHT22;8843;48.838;9.324;2023-11-21T07:09:09;10.90;92.00
17452;DHT22;8843;48.838;9.324;2023-11-21T07:11:38;10.90;92.10
17452;DHT22;8843;48.838;9.324;2023-11-21T07:14:04;11.00;91.90
17452;DHT22;8843;48.838;9.324;2023-11-21T07:16:34;11.00;93.90
17452;DHT22;8843;48.838;9.324;2023-11-21T07:19:03;11.30;94.20
17452;DHT22;8843;48.838;9.324;2023-11-21T07:21:31;11.20;93.70
17452;DHT22;8843;48.838;9.324;2023-11-21T07:23:58;11.10;93.60
17452;DHT22;8843;48.838;9.324;2023-11-21T07:26:25;11.00;93.60
17452;DHT22;8843;48.838;9.324;2023-11-21T07:28:52;10.90;93.60
17452;DHT22;8843;48.838;9.324;2023-11-21T07:31:19;10.90;93.60
17452;DHT22;8843;48.838;9.324;2023-11-21T07:33:47;10.90;93.70
17452;DHT22;8843;48.838;9.324;2023-11-21T07:36:14;10.90;93.70
17452;DHT22;8843;48.838;9.324;2023-11-21T07:38:44;10.90;93.70
17452;DHT22;8843;48.838;9.324;2023-11-21T07:41:11;10.90;93.60
17452;DHT22;8843;48.838;9.324;2023-11-21T07:43:41;10.90;93.70
17452;DHT22;8843;48.838;9.324;2023-11-21T07:46:08;10.90;93.60
17452;DHT22;8843;48.838;9.324;2023-11-21T07:48:35;10.90;93.60
17452;DHT22;8843;48.838;9.324;2023-11-21T07:51:03;10.80;93.60
17452;DHT22;8843;48.838;9.324;2023-11-21T07:53:31;10.80;93.50
17452;DHT22;8843;48.838;9.324;2023-11-21T07:55:58;10.80;93.50
17452;DHT22;8843;48.838;9.324;2023-11-21T07:58:25;10.80;93.50
17452;DHT22;8843;48.838;9.324;2023-11-21T08:00:52;10.80;93.50
17452;DHT22;8843;48.838;9.324;2023-11-21T08:03:19;10.80;93.50
17452;DHT22;8843;48.838;9.324;2023-11-21T08:05:46;10.80;93.50
17452;DHT22;8843;48.838;9.324;2023-11-21T08:08:14;10.80;93.50
17452;DHT22;8843;48.838;9.324;2023-11-21T08:10:43;10.80;93.80
17452;DHT22;8843;48.838;9.324;2023-11-21T08:13:21;10.80;93.50
17452;DHT22;8843;48.838;9.324;2023-11-21T08:15:48;10.80;93.50
17452;DHT22;8843;48.838;9.324;2023-11-21T08:18:15;10.80;93.50
17452;DHT22;8843;48.838;9.324;2023-11-21T08:20:43;10.80;93.50
17452;DHT22;8843;48.838;9.324;2023-11-21T08:23:15;10.80;93.40
17452;DHT22;8843;48.838;9.324;2023-11-21T08:25:43;10.80;93.40
17452;DHT22;8843;48.838;9.324;2023-11-21T08:28:10;10.80;93.40
17452;DHT22;8843;48.838;9.324;2023-11-21T08:30:37;10.80;93.40
17452;DHT22;8843;48.838;9.324;2023-11-21T08:33:05;10.80;93.40
17452;DHT22;8843;48.838;9.324;2023-11-21T08:35:32;10.80;93.40
17452;DHT22;8843;48.838;9.324;2023-11-21T08:37:59;10.80;93.40
17452;DHT22;8843;48.838;9.324;2023-11-21T08:40:30;10.80;93.70
17452;DHT22;8843;48.838;9.324;2023-11-21T08:42:57;10.80;92.80
17452;DHT22;8843;48.838;9.324;2023-11-21T08:45:25;11.00;93.90
17452;DHT22;8843;48.838;9.324;2023-11-21T08:47:52;11.70;95.10
17452;DHT22;8843;48.838;9.324;2023-11-21T08:50:20;12.10;94.00
17452;DHT22;8843;48.838;9.324;2023-11-21T08:52:48;11.50;91.80
17452;DHT22;8843;48.838;9.324;2023-11-21T08:55:14;10.80;92.80
17452;DHT22;8843;48.838;9.324;2023-11-21T08:57:44;10.60;93.30
17452;DHT22;8843;48.838;9.324;2023-11-21T09:00:11;10.40;93.70
17452;DHT22;8843;48.838;9.324;2023-11-21T09:02:39;10.30;93.90
17452;DHT22;8843;48.838;9.324;2023-11-21T09:05:07;10.30;94.10
17452;DHT22;8843;48.838;9.324;2023-11-21T09:07:35;10.30;94.20
17452;DHT22;8843;48.838;9.324;2023-11-21T09:10:02;10.20;94.50
17452;DHT22;8843;48.838;9.324;2023-11-21T09:12:29;10.20;94.40
17452;DHT22;8843;48.838;9.324;2023-11-21T09:14:59;10.20;94.30
17452;DHT22;8843;48.838;9.324;2023-11-21T09:17:26;10.20;94.40
17452;DHT22;8843;48.838;9.324;2023-11-21T09:19:53;10.20;94.40
17452;DHT22;8843;48.838;9.324;2023-11-21T09:22:20;10.20;94.50
17452;DHT22;8843;48.838;9.324;2023-11-21T09:24:46;10.20;94.60
17452;DHT22;8843;48.838;9.324;2023-11-21T09:27:14;10.20;94.70
17452;DHT22;8843;48.838;9.324;2023-11-21T09:29:40;10.20;94.90
17452;DHT22;8843;48.838;9.324;2023-11-21T09:32:09;10.30;95.10
17452;DHT22;8843;48.838;9.324;2023-11-21T09:34:38;10.30;95.30
17452;DHT22;8843;48.838;9.324;2023-11-21T09:37:05;10.40;95.30
17452;DHT22;8843;48.838;9.324;2023-11-21T09:39:32;10.40;95.50
17452;DHT22;8843;48.838;9.324;2023-11-21T09:42:04;10.50;95.50
17452;DHT22;8843;48.838;9.324;2023-11-21T09:44:44;10.50;95.50
17452;DHT22;8843;48.838;9.324;2023-11-21T09:47:15;10.50;95.50
17452;DHT22;8843;48.838;9.324;2023-11-21T09:49:47;10.50;95.40
17452;DHT22;8843;48.838;9.324;2023-11-21T09:52:20;10.50;95.30
17452;DHT22;8843;48.838;9.324;2023-11-21T09:54:51;10.50;95.30
17452;DHT22;8843;48.838;9.324;2023-11-21T09:57:20;10.50;95.20
17452;DHT22;8843;48.838;9.324;2023-11-21T09:59:51;10.50;95.40
17452;DHT22;8843;48.838;9.324;2023-11-21T10:02:22;10.50;95.60
17452;DHT22;8843;48.838;9.324;2023-11-21T10:04:51;10.50;95.70
17452;DHT22;8843;48.838;9.324;2023-11-21T10:07:20;10.50;95.60
17452;DHT22;8843;48.838;9.324;2023-11-21T10:09:47;10.50;95.70
17452;DHT22;8843;48.838;9.324;2023-11-21T10:12:15;10.50;95.70
17452;DHT22;8843;48.838;9.324;2023-11-21T10:14:42;10.50;95.60
17452;DHT22;8843;48.838;9.324;2023-11-21T10:17:10;10.70;96.10
17452;DHT22;8843;48.838;9.324;2023-11-21T10:19:40;10.80;95.50
17452;DHT22;8843;48.838;9.324;2023-11-21T10:22:07;10.80;95.30
17452;DHT22;8843;48.838;9.324;2023-11-21T10:24:35;10.80;95.20
17452;DHT22;8843;48.838;9.324;2023-11-21T10:27:03;11.20;95.70
17452;DHT22;8843;48.838;9.324;2023-11-21T10:29:30;11.10;95.00
17452;DHT22;8843;48.838;9.324;2023-11-21T10:32:02;11.00;94.90
17452;DHT22;8843;48.838;9.324;2023-11-21T10:34:29;10.90;94.80
17452;DHT22;8843;48.838;9.324;2023-11-21T10:36:57;10.90;95.00
17452;DHT22;8843;48.838;9.324;2023-11-21T10:39:25;10.90;95.10
17452;DHT22;8843;48.838;9.324;2023-11-21T10:41:56;10.80;95.00
17452;DHT22;8843;48.838;9.324;2023-11-21T10:44:23;10.80;95.00
17452;DHT22;8843;48.838;9.324;2023-11-21T10:46:51;10.90;95.00
17452;DHT22;8843;48.838;9.324;2023-11-21T10:49:22;10.80;94.90
17452;DHT22;8843;48.838;9.324;2023-11-21T10:51:50;10.80;95.00
17452;DHT22;8843;48.838;9.324;2023-11-21T10:54:20;10.80;95.00
17452;DHT22;8843;48.838;9.324;2023-11-21T10:56:49;10.80;94.90
17452;DHT22;8843;48.838;9.324;2023-11-21T10:59:17;10.80;94.90
17452;DHT22;8843;48.838;9.324;2023-11-21T11:01:46;10.80;94.90
17452;DHT22;8843;48.838;9.324;2023-11-21T11:04:15;10.80;94.90
17452;DHT22;8843;48.838;9.324;2023-11-21T11:06:45;10.80;94.80
17452;DHT22;8843;48.838;9.324;2023-11-21T11:09:13;10.80;94.80
17452;DHT22;8843;48.838;9.324;2023-11-21T11:11:43;10.80;94.80
17452;DHT22;8843;48.838;9.324;2023-11-21T11:14:11;10.90;94.80
17452;DHT22;8843;48.838;9.324;2023-11-21T11:16:39;10.90;94.70
17452;DHT22;8843;48.838;9.324;2023-11-21T11:19:07;10.80;94.70
17452;DHT22;8843;48.838;9.324;2023-11-21T11:21:43;10.90;94.70
17452;DHT22;8843;48.838;9.324;2023-11-21T11:24:23;10.80;94.70
17452;DHT22;8843;48.838;9.324;2023-11-21T11:27:00;10.80;94.70
17452;DHT22;8843;48.838;9.324;2023-11-21T11:29:35;10.80;94.80
17452;DHT22;8843;48.838;9.324;2023-11-21T11:32:13;10.80;94.70
17452;DHT22;8843;48.838;9.324;2023-11-21T11:34:47;10.80;95.00
17452;DHT22;8843;48.838;9.324;2023-11-21T11:37:16;10.80;94.90
17452;DHT22;8843;48.838;9.324;2023-11-21T11:39:43;10.80;94.90
17452;DHT22;8843;48.838;9.324;2023-11-21T11:42:14;10.80;95.20
17452;DHT22;8843;48.838;9.324;2023-11-21T11:44:49;10.80;95.20
17452;DHT22;8843;48.838;9.324;2023-11-21T11:47:20;10.80;95.00
17452;DHT22;8843;48.838;9.324;2023-11-21T11:50:00;10.80;95.20
17452;DHT22;8843;48.838;9.324;2023-11-21T11:52:37;10.80;95.30
17452;DHT22;8843;48.838;9.324;2023-11-21T11:55:05;10.70;95.40
17452;DHT22;8843;48.838;9.324;2023-11-21T11:57:34;10.80;95.20
17452;DHT22;8843;48.838;9.324;2023-11-21T12:00:12;10.80;95.30
17452;DHT22;8843;48.838;9.324;2023-11-21T12:02:45;10.80;95.00
17452;DHT22;8843;48.838;9.324;2023-11-21T12:05:14;10.80;95.30
17452;DHT22;8843;48.838;9.324;2023-11-21T12:07:48;10.80;95.10
17452;DHT22;8843;48.838;9.324;2023-11-21T12:10:16;10.80;94.90
17452;DHT22;8843;48.838;9.324;2023-11-21T12:12:47;10.80;94.80
17452;DHT22;8843;48.838;9.324;2023-11-21T12:15:15;10.80;94.80
17452;DHT22;8843;48.838;9.324;2023-11-21T12:17:42;10.80;94.70
17452;DHT22;8843;48.838;9.324;2023-11-21T12:20:11;10.90;94.80
17452;DHT22;8843;48.838;9.324;2023-11-21T12:22:45;10.80;94.70
17452;DHT22;8843;48.838;9.324;2023-11-21T12:25:14;10.80;95.00
17452;DHT22;8843;48.838;9.324;2023-11-21T12:27:46;10.80;94.70
17452;DHT22;8843;48.838;9.324;2023-11-21T12:30:16;10.80;94.70
17452;DHT22;8843;48.838;9.324;2023-11-21T12:32:43;10.90;94.90
17452;DHT22;8843;48.838;9.324;2023-11-21T12:35:12;10.80;94.90
17452;DHT22;8843;48.838;9.324;2023-11-21T12:37:40;10.80;95.10
17452;DHT22;8843;48.838;9.324;2023-11-21T12:40:09;10.80;95.10
17452;DHT22;8843;48.838;9.324;2023-11-21T12:42:40;10.80;95.50
17452;DHT22;8843;48.838;9.324;2023-11-21T12:45:19;10.80;95.40
17452;DHT22;8843;48.838;9.324;2023-11-21T12:47:47;10.80;95.10
17452;DHT22;8843;48.838;9.324;2023-11-21T12:50:14;10.80;95.40
17452;DHT22;8843;48.838;9.324;2023-11-21T12:52:42;10.80;96.00
17452;DHT22;8843;48.838;9.324;2023-11-21T12:55:14;10.80;95.40
17452;DHT22;8843;48.838;9.324;2023-11-21T12:57:43;10.80;95.00
17452;DHT22;8843;48.838;9.324;2023-11-21T13:00:13;10.80;95.00
17452;DHT22;8843;48.838;9.324;2023-11-21T13:02:53;10.80;95.00
17452;DHT22;8843;48.838;9.324;2023-11-21T13:05:27;10.90;95.60
17452;DHT22;8843;48.838;9.324;2023-11-21T13:07:54;10.80;95.90
17452;DHT22;8843;48.838;9.324;2023-11-21T13:10:24;11.10;96.10
17452;DHT22;8843;48.838;9.324;2023-11-21T13:12:55;11.00;96.50
17452;DHT22;8843;48.838;9.324;2023-11-21T13:15:25;11.10;96.30
17452;DHT22;8843;48.838;9.324;2023-11-21T13:17:53;11.10;96.60
17452;DHT22;8843;48.838;9.324;2023-11-21T13:20:21;11.00;96.40
17452;DHT22;8843;48.838;9.324;2023-11-21T13:22:50;11.10;96.60
17452;DHT22;8843;48.838;9.324;2023-11-21T13:25:20;11.10;96.50
17452;DHT22;8843;48.838;9.324;2023-11-21T13:27:47;11.00;96.50
17452;DHT22;8843;48.838;9.324;2023-11-21T13:30:15;11.10;96.50
17452;DHT22;8843;48.838;9.324;2023-11-21T13:32:45;11.10;96.30
17452;DHT22;8843;48.838;9.324;2023-11-21T13:35:12;11.10;96.50
17452;DHT22;8843;48.838;9.324;2023-11-21T13:37:49;11.10;96.40
17452;DHT22;8843;48.838;9.324;2023-11-21T13:40:20;11.10;96.40
17452;DHT22;8843;48.838;9.324;2023-11-21T13:42:51;11.10;96.30
17452;DHT22;8843;48.838;9.324;2023-11-21T13:45:21;11.10;96.30
17452;DHT22;8843;48.838;9.324;2023-11-21T13:47:50;11.10;96.40
17452;DHT22;8843;48.838;9.324;2023-11-21T13:50:24;11.00;95.90
17452;DHT22;8843;48.838;9.324;2023-11-21T13:52:55;11.00;96.10
17452;DHT22;8843;48.838;9.324;2023-11-21T13:55:23;11.00;96.40
17452;DHT22;8843;48.838;9.324;2023-11-21T13:57:51;11.00;96.40
17452;DHT22;8843;48.838;9.324;2023-11-21T14:00:18;11.00;96.90
17452;DHT22;8843;48.838;9.324;2023-11-21T14:03:11;11.80;97.20
17452;DHT22;8843;48.838;9.324;2023-11-21T14:05:46;12.00;95.00
17452;DHT22;8843;48.838;9.324;2023-11-21T14:08:17;11.50;95.40
17452;DHT22;8843;48.838;9.324;2023-11-21T14:10:45;11.30;95.80
17452;DHT22;8843;48.838;9.324;2023-11-21T14:13:16;11.20;96.10
17452;DHT22;8843;48.838;9.324;2023-11-21T14:15:43;11.10;96.10
17452;DHT22;8843;48.838;9.324;2023-11-21T14:18:13;11.10;96.50
17452;DHT22;8843;48.838;9.324;2023-11-21T14:20:43;11.00;96.10
17452;DHT22;8843;48.838;9.324;2023-11-21T14:23:10;11.20;97.40
17452;DHT22;8843;48.838;9.324;2023-11-21T14:25:37;11.50;96.70
17452;DHT22;8843;48.838;9.324;2023-11-21T14:28:05;11.30;96.20
17452;DHT22;8843;48.838;9.324;2023-11-21T14:30:32;11.20;96.00
17452;DHT22;8843;48.838;9.324;2023-11-21T14:33:01;11.10;96.00
17452;DHT22;8843;48.838;9.324;2023-11-21T14:35:30;11.10;96.10
17452;DHT22;8843;48.838;9.324;2023-11-21T14:37:58;11.10;96.20
17452;DHT22;8843;48.838;9.324;2023-11-21T14:40:26;11.10;96.20
17452;DHT22;8843;48.838;9.324;2023-11-21T14:42:58;11.10;96.20
17452;DHT22;8843;48.838;9.324;2023-11-21T14:45:25;11.10;96.10
17452;DHT22;8843;48.838;9.324;2023-11-21T14:47:54;11.10;96.10
17452;DHT22;8843;48.838;9.324;2023-11-21T14:50:33;11.00;96.10
17452;DHT22;8843;48.838;9.324;2023-11-21T14:53:16;11.00;96.10
17452;DHT22;8843;48.838;9.324;2023-11-21T14:55:48;11.00;96.10
17452;DHT22;8843;48.838;9.324;2023-11-21T14:58:23;11.00;96.10
17452;DHT22;8843;48.838;9.324;2023-11-21T15:00:55;11.00;96.00
17452;DHT22;8843;48.838;9.324;2023-11-21T15:03:27;11.00;96.00
17452;DHT22;8843;48.838;9.324;2023-11-21T15:06:16;11.00;96.00
17452;DHT22;8843;48.838;9.324;2023-11-21T15:08:54;11.00;96.00
17452;DHT22;8843;48.838;9.324;2023-11-21T15:11:46;11.00;96.00
17452;DHT22;8843;48.838;9.324;2023-11-21T15:14:13;11.00;96.00
17452;DHT22;8843;48.838;9.324;2023-11-21T15:16:45;11.00;95.90
17452;DHT22;8843;48.838;9.324;2023-11-21T15:19:16;11.00;95.90
17452;DHT22;8843;48.838;9.324;2023-11-21T15:21:51;11.00;95.90
17452;DHT22;8843;48.838;9.324;2023-11-21T15:24:18;11.00;95.60
17452;DHT22;8843;48.838;9.324;2023-11-21T15:26:45;11.50;98.10
17452;DHT22;8843;48.838;9.324;2023-11-21T15:29:12;11.40;96.30
17452;DHT22;8843;48.838;9.324;2023-11-21T15:31:40;11.50;97.30
17452;DHT22;8843;48.838;9.324;2023-11-21T15:34:14;11.90;97.10
17452;DHT22;8843;48.838;9.324;2023-11-21T15:36:41;11.90;96.50
17452;DHT22;8843;48.838;9.324;2023-11-21T15:39:09;11.70;95.90
17452;DHT22;8843;48.838;9.324;2023-11-21T15:41:37;11.40;96.10
17452;DHT22;8843;48.838;9.324;2023-11-21T15:44:05;12.30;96.40
17452;DHT22;8843;48.838;9.324;2023-11-21T15:46:35;12.60;94.80
17452;DHT22;8843;48.838;9.324;2023-11-21T15:49:03;12.70;94.20
17452;DHT22;8843;48.838;9.324;2023-11-21T15:51:38;12.80;93.40
17452;DHT22;8843;48.838;9.324;2023-11-21T15:54:05;12.70;92.90